createdAt,value
2018-08-09T00:00:05.369Z,21.40
2018-08-09T00:02:34.341Z,21.40
2018-08-09T00:05:03.340Z,21.40
2018-08-09T00:07:32.166Z,21.40
2018-08-09T00:10:01.111Z,21.30
2018-08-09T00:12:29.935Z,21.30
2018-08-09T00:14:58.841Z,21.30
2018-08-09T00:17:27.673Z,21.30
2018-08-09T00:22:53.649Z,21.20
2018-08-09T00:25:22.730Z,21.20
2018-08-09T00:27:51.776Z,21.20
2018-08-09T00:30:20.725Z,21.20
2018-08-09T00:32:49.534Z,21.20
2018-08-09T00:35:18.525Z,21.20
2018-08-09T00:37:47.329Z,21.20
2018-08-09T00:40:16.221Z,21.20
2018-08-09T00:42:45.186Z,21.20
2018-08-09T00:45:14.057Z,21.20
2018-08-09T00:47:42.849Z,21.10
2018-08-09T00:50:11.755Z,21.00
2018-08-09T00:52:40.557Z,21.00
2018-08-09T00:55:09.577Z,21.00
2018-08-09T00:57:38.637Z,21.00
2018-08-09T01:00:07.441Z,20.90
2018-08-09T01:02:36.385Z,20.90
2018-08-09T01:05:05.244Z,20.90
2018-08-09T01:07:34.229Z,20.90
2018-08-09T01:10:03.280Z,20.90
2018-08-09T01:12:32.305Z,20.90
2018-08-09T01:15:01.313Z,20.90
2018-08-09T01:17:30.109Z,20.90
2018-08-09T01:19:58.969Z,20.90
2018-08-09T01:22:27.836Z,20.80
2018-08-09T01:24:56.834Z,20.90
2018-08-09T01:27:25.586Z,20.80
2018-08-09T01:29:54.747Z,20.90
2018-08-09T01:32:23.538Z,20.90
2018-08-09T01:34:52.525Z,20.80
2018-08-09T01:37:21.433Z,20.80
2018-08-09T01:39:50.247Z,20.80
2018-08-09T01:42:30.653Z,20.80
2018-08-09T01:44:59.733Z,20.80
2018-08-09T01:47:28.766Z,20.80
2018-08-09T01:49:57.664Z,20.80
2018-08-09T01:52:26.444Z,20.80
2018-08-09T01:54:55.269Z,20.70
2018-08-09T01:57:24.169Z,20.70
2018-08-09T01:59:52.946Z,20.70
2018-08-09T02:02:21.769Z,20.70
2018-08-09T02:04:50.711Z,20.60
2018-08-09T02:07:19.569Z,20.60
2018-08-09T02:09:48.367Z,20.60
2018-08-09T02:12:17.353Z,20.60
2018-08-09T02:14:46.230Z,20.50
2018-08-09T02:17:15.041Z,20.60
2018-08-09T02:19:43.826Z,20.50
2018-08-09T02:22:12.701Z,20.50
2018-08-09T02:24:41.525Z,20.50
2018-08-09T02:27:10.341Z,20.40
2018-08-09T02:29:39.141Z,20.40
2018-08-09T02:32:07.928Z,20.40
2018-08-09T02:34:36.871Z,20.30
2018-08-09T02:37:05.658Z,20.20
2018-08-09T02:39:34.465Z,20.20
2018-08-09T02:42:03.262Z,20.20
2018-08-09T02:44:32.232Z,20.10
2018-08-09T02:47:01.073Z,20.20
2018-08-09T02:49:29.848Z,20.10
2018-08-09T02:51:58.821Z,20.10
2018-08-09T02:54:27.589Z,20.10
2018-08-09T02:56:56.450Z,20.10
2018-08-09T02:59:25.248Z,20.10
2018-08-09T03:01:54.066Z,20.10
2018-08-09T03:04:22.880Z,20.10
2018-08-09T03:06:51.651Z,20.10
2018-08-09T03:09:20.497Z,20.00
2018-08-09T03:11:49.458Z,20.00
2018-08-09T03:14:18.255Z,19.90
2018-08-09T03:16:47.034Z,19.90
2018-08-09T03:19:15.865Z,19.80
2018-08-09T03:21:44.653Z,19.80
2018-08-09T03:24:13.451Z,19.80
2018-08-09T03:26:42.221Z,19.80
2018-08-09T03:29:11.025Z,19.70
2018-08-09T03:31:39.839Z,19.70
2018-08-09T03:34:08.661Z,19.60
2018-08-09T03:36:37.422Z,19.70
2018-08-09T03:39:07.665Z,19.70
2018-08-09T03:41:36.645Z,19.70
2018-08-09T03:44:05.482Z,19.60
2018-08-09T03:46:34.237Z,19.60
2018-08-09T03:49:03.056Z,19.50
2018-08-09T03:51:31.857Z,19.50
2018-08-09T03:54:00.977Z,19.50
2018-08-09T03:56:29.777Z,19.40
2018-08-09T03:58:58.585Z,19.40
2018-08-09T04:01:27.369Z,19.40
2018-08-09T04:03:56.279Z,19.40
2018-08-09T04:06:25.471Z,19.40
2018-08-09T04:08:54.257Z,19.40
2018-08-09T04:11:23.029Z,19.40
2018-08-09T04:13:51.849Z,19.40
2018-08-09T04:16:20.806Z,19.40
2018-08-09T04:18:49.821Z,19.40
2018-08-09T04:21:18.713Z,19.40
2018-08-09T04:23:47.632Z,19.40
2018-08-09T04:26:16.441Z,19.40
2018-08-09T04:28:45.325Z,19.40
2018-08-09T04:31:14.110Z,19.30
2018-08-09T04:33:42.957Z,19.40
2018-08-09T04:36:11.948Z,19.40
2018-08-09T04:38:41.042Z,19.30
2018-08-09T04:41:09.829Z,19.30
2018-08-09T04:43:38.629Z,19.30
2018-08-09T04:46:07.640Z,19.30
2018-08-09T04:48:36.737Z,19.30
2018-08-09T04:51:05.580Z,19.30
2018-08-09T04:53:34.365Z,19.30
2018-08-09T04:56:03.187Z,19.30
2018-08-09T04:58:32.043Z,19.30
2018-08-09T05:01:00.757Z,19.30
2018-08-09T05:03:30.343Z,19.30
2018-08-09T05:05:59.342Z,19.30
2018-08-09T05:08:28.134Z,19.30
2018-08-09T05:10:57.093Z,19.30
2018-08-09T05:13:25.914Z,19.30
2018-08-09T05:15:55.067Z,19.40
2018-08-09T05:18:23.916Z,19.40
2018-08-09T05:20:52.997Z,19.50
2018-08-09T05:23:21.770Z,19.50
2018-08-09T05:25:50.577Z,19.60
2018-08-09T05:28:19.405Z,19.60
2018-08-09T05:30:48.357Z,19.60
2018-08-09T05:33:17.261Z,19.60
2018-08-09T05:35:46.084Z,19.60
2018-08-09T05:38:15.098Z,19.60
2018-08-09T05:40:43.861Z,19.70
2018-08-09T05:43:12.620Z,19.80
2018-08-09T05:45:41.408Z,20.10
2018-08-09T05:48:10.277Z,20.00
2018-08-09T05:50:39.165Z,19.90
2018-08-09T05:53:07.993Z,19.90
2018-08-09T05:55:37.052Z,19.90
2018-08-09T05:58:06.664Z,19.90
2018-08-09T06:00:36.517Z,20.00
2018-08-09T06:03:05.665Z,20.00
2018-08-09T06:05:34.511Z,20.00
2018-08-09T06:08:03.277Z,20.10
2018-08-09T06:10:32.217Z,20.10
2018-08-09T06:13:01.321Z,20.10
2018-08-09T06:15:30.116Z,20.10
2018-08-09T06:17:58.944Z,20.20
2018-08-09T06:20:27.725Z,20.20
2018-08-09T06:22:56.593Z,20.20
2018-08-09T06:25:26.387Z,20.20
2018-08-09T06:27:55.300Z,20.20
2018-08-09T06:30:24.050Z,20.30
2018-08-09T06:32:52.815Z,20.30
2018-08-09T06:35:21.662Z,20.30
2018-08-09T06:37:50.441Z,20.40
2018-08-09T06:40:19.230Z,20.40
2018-08-09T06:42:48.133Z,20.40
2018-08-09T06:45:16.941Z,20.60
2018-08-09T06:47:45.789Z,20.70
2018-08-09T06:50:14.521Z,20.90
2018-08-09T06:52:43.303Z,20.90
2018-08-09T06:55:12.089Z,20.90
2018-08-09T06:57:40.947Z,20.80
2018-08-09T07:00:11.753Z,20.80
2018-08-09T07:02:40.674Z,20.80
2018-08-09T07:05:09.520Z,20.80
2018-08-09T07:07:38.960Z,20.80
2018-08-09T07:10:08.337Z,20.90
2018-08-09T07:12:37.154Z,21.00
2018-08-09T07:15:08.585Z,21.00
2018-08-09T07:17:37.545Z,21.10
2018-08-09T07:20:07.388Z,21.20
2018-08-09T07:22:36.628Z,21.30
2018-08-09T07:25:05.761Z,21.50
2018-08-09T07:27:34.541Z,21.70
2018-08-09T07:30:03.789Z,21.80
2018-08-09T07:32:32.613Z,21.90
2018-08-09T07:35:01.675Z,22.00
2018-08-09T07:37:30.458Z,22.10
2018-08-09T07:39:59.474Z,22.20
2018-08-09T07:42:29.167Z,22.30
2018-08-09T07:44:59.349Z,22.40
2018-08-09T07:47:28.822Z,22.50
2018-08-09T07:49:58.913Z,22.70
2018-08-09T07:52:28.030Z,22.60
2018-08-09T07:54:57.237Z,22.70
2018-08-09T07:57:26.659Z,22.80
2018-08-09T07:59:56.342Z,22.90
2018-08-09T08:02:26.361Z,23.00
2018-08-09T08:04:55.563Z,23.10
2018-08-09T08:07:26.541Z,23.10
2018-08-09T08:09:55.834Z,23.30
2018-08-09T08:12:25.439Z,23.50
2018-08-09T08:14:55.700Z,23.50
2018-08-09T08:17:24.657Z,23.70
2018-08-09T08:19:54.121Z,23.80
2018-08-09T08:22:23.714Z,23.70
2018-08-09T08:24:53.770Z,23.40
2018-08-09T08:27:22.958Z,23.30
2018-08-09T08:29:53.633Z,23.00
2018-08-09T08:32:25.394Z,23.00
2018-08-09T08:34:57.723Z,23.00
2018-08-09T08:37:28.260Z,23.00
2018-08-09T08:39:59.431Z,23.10
2018-08-09T08:42:28.656Z,23.20
2018-08-09T08:44:58.214Z,23.20
2018-08-09T08:47:29.232Z,23.30
2018-08-09T08:49:58.235Z,23.30
2018-08-09T08:52:27.470Z,23.50
2018-08-09T08:54:56.766Z,23.50
2018-08-09T08:57:26.973Z,23.60
2018-08-09T08:59:56.358Z,23.60
2018-08-09T09:02:26.335Z,23.70
2018-08-09T09:04:55.299Z,23.60
2018-08-09T09:07:24.189Z,23.70
2018-08-09T09:09:55.090Z,23.70
2018-08-09T09:12:24.281Z,23.90
2018-08-09T09:14:53.453Z,23.90
2018-08-09T09:17:22.356Z,23.80
2018-08-09T09:19:51.270Z,23.90
2018-08-09T09:22:21.758Z,24.10
2018-08-09T09:24:50.610Z,24.20
2018-08-09T09:27:19.462Z,24.20
2018-08-09T09:29:48.842Z,24.30
2018-08-09T09:32:17.810Z,24.40
2018-08-09T09:34:46.864Z,24.40
2018-08-09T09:37:15.720Z,24.60
2018-08-09T09:39:44.573Z,24.60
2018-08-09T09:42:14.288Z,24.70
2018-08-09T09:44:43.494Z,24.80
2018-08-09T09:47:12.453Z,25.00
2018-08-09T09:49:41.323Z,25.10
2018-08-09T09:52:10.265Z,25.30
2018-08-09T09:54:39.844Z,25.40
2018-08-09T09:57:09.955Z,25.60
2018-08-09T09:59:39.239Z,25.50
2018-08-09T10:02:09.241Z,25.60
2018-08-09T10:04:38.197Z,25.60
2018-08-09T10:07:07.220Z,25.60
2018-08-09T10:09:36.070Z,25.80
2018-08-09T10:12:05.682Z,25.90
2018-08-09T10:14:34.652Z,25.90
2018-08-09T10:17:04.303Z,25.80
2018-08-09T10:19:35.038Z,26.00
2018-08-09T10:22:04.286Z,26.10
2018-08-09T10:24:33.509Z,26.30
2018-08-09T10:27:02.597Z,26.40
2018-08-09T10:29:31.530Z,26.50
2018-08-09T10:32:00.418Z,26.70
2018-08-09T10:34:29.396Z,26.50
2018-08-09T10:36:58.317Z,26.50
2018-08-09T10:39:31.580Z,26.80
2018-08-09T10:42:01.182Z,26.90
2018-08-09T10:44:30.383Z,26.90
2018-08-09T10:46:59.522Z,27.10
2018-08-09T10:49:28.941Z,27.20
2018-08-09T10:51:58.105Z,27.20
2018-08-09T10:54:29.187Z,27.20
2018-08-09T10:56:58.114Z,27.10
2018-08-09T10:59:27.610Z,27.20
2018-08-09T11:01:56.735Z,27.20
2018-08-09T11:04:25.814Z,27.20
2018-08-09T11:06:55.033Z,27.30
2018-08-09T11:09:24.333Z,27.50
2018-08-09T11:11:53.245Z,27.40
2018-08-09T11:14:22.575Z,27.40
2018-08-09T11:16:51.987Z,27.30
2018-08-09T11:19:20.841Z,27.40
2018-08-09T11:21:50.185Z,27.50
2018-08-09T11:24:20.300Z,27.40
2018-08-09T11:26:49.843Z,27.20
2018-08-09T11:29:18.713Z,27.10
2018-08-09T11:31:47.657Z,27.00
2018-08-09T11:34:16.447Z,27.00
2018-08-09T11:36:45.232Z,27.00
2018-08-09T11:39:14.017Z,27.00
2018-08-09T11:41:42.846Z,27.20
2018-08-09T11:44:11.905Z,27.50
2018-08-09T11:46:40.712Z,27.80
2018-08-09T11:49:09.557Z,27.80
2018-08-09T11:51:38.313Z,27.90
2018-08-09T11:54:07.242Z,28.20
2018-08-09T11:56:36.287Z,28.10
2018-08-09T11:59:05.478Z,28.20
2018-08-09T12:01:34.363Z,28.10
2018-08-09T12:04:03.156Z,27.90
2018-08-09T12:06:31.950Z,28.00
2018-08-09T12:09:00.900Z,28.10
2018-08-09T12:11:30.253Z,28.10
2018-08-09T12:13:59.038Z,28.40
2018-08-09T12:16:27.856Z,28.60
2018-08-09T12:18:56.673Z,28.80
2018-08-09T12:21:25.510Z,28.50
2018-08-09T12:23:54.540Z,28.40
2018-08-09T12:26:23.338Z,28.20
2018-08-09T12:28:52.158Z,28.00
2018-08-09T12:31:20.978Z,27.90
2018-08-09T12:33:49.795Z,27.80
2018-08-09T12:36:18.629Z,27.70
2018-08-09T12:38:47.393Z,27.60
2018-08-09T12:41:16.217Z,27.40
2018-08-09T12:43:45.210Z,27.40
2018-08-09T12:46:14.026Z,27.20
2018-08-09T12:48:42.897Z,27.20
2018-08-09T12:51:11.658Z,27.20
2018-08-09T12:53:40.520Z,27.60
2018-08-09T12:56:09.665Z,28.00
2018-08-09T12:58:38.953Z,28.10
2018-08-09T13:01:07.824Z,27.90
2018-08-09T13:03:36.629Z,27.60
2018-08-09T13:06:05.453Z,27.70
2018-08-09T13:08:34.290Z,27.60
2018-08-09T13:11:03.195Z,27.80
2018-08-09T13:13:31.985Z,28.00
2018-08-09T13:16:01.736Z,27.90
2018-08-09T13:18:32.436Z,28.20
2018-08-09T13:21:02.594Z,28.40
2018-08-09T13:23:31.624Z,28.20
2018-08-09T13:26:01.024Z,28.20
2018-08-09T13:28:29.882Z,28.20
2018-08-09T13:30:58.682Z,28.20
2018-08-09T13:33:27.468Z,28.40
2018-08-09T13:35:56.496Z,29.00
2018-08-09T13:38:26.274Z,29.20
2018-08-09T13:40:55.970Z,29.30
2018-08-09T13:43:25.015Z,29.30
2018-08-09T13:45:54.686Z,29.40
2018-08-09T13:48:23.765Z,29.40
2018-08-09T13:50:52.821Z,29.20
2018-08-09T13:53:21.758Z,29.10
2018-08-09T13:55:50.805Z,29.10
2018-08-09T13:58:19.934Z,29.00
2018-08-09T14:00:49.257Z,29.10
2018-08-09T14:03:18.054Z,29.00
2018-08-09T14:05:47.400Z,28.80
2018-08-09T14:08:16.734Z,28.90
2018-08-09T14:10:45.578Z,29.00
2018-08-09T14:13:14.378Z,29.10
2018-08-09T14:15:43.340Z,29.00
2018-08-09T14:18:12.111Z,28.90
2018-08-09T14:20:40.939Z,28.80
2018-08-09T14:23:09.699Z,28.80
2018-08-09T14:25:38.629Z,28.70
2018-08-09T14:28:07.477Z,28.60
2018-08-09T14:30:36.303Z,28.50
2018-08-09T14:33:05.301Z,28.50
2018-08-09T14:35:34.185Z,28.60
2018-08-09T14:38:02.977Z,28.60
2018-08-09T14:40:31.949Z,28.60
2018-08-09T14:43:01.009Z,28.70
2018-08-09T14:45:29.794Z,29.10
2018-08-09T14:47:58.602Z,29.60
2018-08-09T14:50:27.599Z,30.10
2018-08-09T14:52:56.493Z,30.30
2018-08-09T14:55:25.276Z,30.40
2018-08-09T14:57:54.069Z,30.60
2018-08-09T15:00:23.037Z,30.30
2018-08-09T15:02:52.101Z,29.80
2018-08-09T15:05:20.950Z,29.30
2018-08-09T15:07:49.808Z,29.10
2018-08-09T15:10:19.032Z,29.10
2018-08-09T15:12:47.920Z,28.90
2018-08-09T15:15:16.896Z,29.00
2018-08-09T15:17:45.693Z,28.90
2018-08-09T15:20:14.713Z,28.90
2018-08-09T15:22:43.675Z,28.90
2018-08-09T15:25:14.444Z,29.10
2018-08-09T15:27:43.297Z,28.90
2018-08-09T15:30:16.690Z,28.90
2018-08-09T15:32:45.725Z,28.80
2018-08-09T15:35:14.895Z,28.90
2018-08-09T15:37:43.956Z,29.10
2018-08-09T15:40:13.611Z,29.20
2018-08-09T15:42:42.576Z,29.50
2018-08-09T15:45:13.053Z,29.60
2018-08-09T15:47:42.568Z,29.70
2018-08-09T15:50:16.781Z,30.00
2018-08-09T15:52:45.809Z,30.00
2018-08-09T15:55:15.578Z,29.50
2018-08-09T15:57:45.745Z,29.30
2018-08-09T16:00:16.817Z,29.20
2018-08-09T16:02:45.910Z,29.60
2018-08-09T16:05:14.845Z,29.90
2018-08-09T16:07:43.764Z,29.70
2018-08-09T16:10:13.916Z,29.50
2018-08-09T16:12:43.178Z,29.50
2018-08-09T16:15:14.118Z,29.80
2018-08-09T16:17:43.552Z,30.00
2018-08-09T16:20:12.441Z,29.80
2018-08-09T16:22:42.029Z,29.50
2018-08-09T16:25:14.374Z,29.80
2018-08-09T16:27:43.138Z,29.70
2018-08-09T16:30:16.948Z,29.70
2018-08-09T16:32:45.761Z,29.50
2018-08-09T16:35:14.750Z,29.10
2018-08-09T16:37:44.126Z,28.80
2018-08-09T16:40:14.698Z,28.40
2018-08-09T16:42:44.002Z,28.40
2018-08-09T16:45:14.389Z,28.30
2018-08-09T16:47:43.193Z,28.30
2018-08-09T16:50:14.094Z,28.00
2018-08-09T16:52:42.902Z,27.70
2018-08-09T16:55:12.983Z,27.80
2018-08-09T16:57:42.122Z,27.50
2018-08-09T17:00:13.576Z,27.50
2018-08-09T17:02:42.409Z,27.50
2018-08-09T17:05:13.333Z,27.40
2018-08-09T17:07:42.435Z,27.30
2018-08-09T17:10:11.696Z,27.20
2018-08-09T17:12:41.106Z,27.10
2018-08-09T17:15:14.853Z,27.10
2018-08-09T17:17:43.726Z,27.10
2018-08-09T17:20:16.534Z,27.10
2018-08-09T17:22:45.455Z,27.00
2018-08-09T17:25:14.624Z,26.90
2018-08-09T17:27:44.674Z,26.80
2018-08-09T17:30:14.902Z,26.70
2018-08-09T17:32:43.705Z,26.60
2018-08-09T17:35:13.314Z,26.60
2018-08-09T17:37:42.129Z,26.50
2018-08-09T17:40:13.653Z,26.50
2018-08-09T17:42:42.446Z,26.40
2018-08-09T17:45:11.862Z,26.30
2018-08-09T17:47:40.753Z,26.20
2018-08-09T17:50:10.038Z,26.30
2018-08-09T17:52:38.849Z,26.30
2018-08-09T17:55:13.463Z,26.30
2018-08-09T17:57:43.246Z,26.20
2018-08-09T18:00:20.376Z,26.20
2018-08-09T18:02:49.185Z,26.10
2018-08-09T18:05:17.988Z,26.10
2018-08-09T18:07:46.773Z,26.10
2018-08-09T18:10:19.021Z,25.80
2018-08-09T18:12:48.418Z,25.90
2018-08-09T18:15:17.706Z,25.90
2018-08-09T18:17:46.643Z,26.00
2018-08-09T18:20:17.805Z,25.90
2018-08-09T18:22:46.638Z,25.80
2018-08-09T18:25:15.955Z,25.80
2018-08-09T18:27:44.798Z,25.50
2018-08-09T18:30:15.674Z,25.10
2018-08-09T18:32:44.585Z,24.70
2018-08-09T18:35:14.309Z,24.40
2018-08-09T18:37:43.081Z,24.40
2018-08-09T18:40:18.437Z,24.30
2018-08-09T18:42:47.217Z,24.40
2018-08-09T18:45:16.033Z,24.30
2018-08-09T18:47:44.825Z,24.40
2018-08-09T18:50:19.782Z,24.30
2018-08-09T18:52:48.796Z,24.40
2018-08-09T18:55:18.420Z,24.40
2018-08-09T18:57:47.588Z,24.40
2018-08-09T19:00:22.506Z,24.30
2018-08-09T19:02:51.645Z,24.20
2018-08-09T19:05:20.585Z,24.10
2018-08-09T19:07:49.485Z,24.10
2018-08-09T19:10:33.023Z,24.10
2018-08-09T19:13:02.913Z,24.10
2018-08-09T19:15:39.345Z,24.10
2018-08-09T19:18:12.564Z,23.90
2018-08-09T19:20:43.263Z,23.90
2018-08-09T19:23:12.590Z,23.70
2018-08-09T19:25:42.503Z,23.60
2018-08-09T19:28:12.058Z,23.60
2018-08-09T19:30:40.982Z,23.60
2018-08-09T19:33:09.860Z,23.60
2018-08-09T19:35:38.590Z,23.60
2018-08-09T19:38:07.909Z,23.70
2018-08-09T19:40:38.101Z,23.80
2018-08-09T19:43:07.049Z,23.90
2018-08-09T19:45:35.907Z,23.80
2018-08-09T19:48:04.681Z,23.90
2018-08-09T19:50:33.751Z,23.90
2018-08-09T19:53:02.669Z,23.90
2018-08-09T19:55:31.472Z,23.90
2018-08-09T19:58:00.229Z,23.80
2018-08-09T20:00:30.253Z,23.80
2018-08-09T20:02:59.137Z,23.80
2018-08-09T20:05:29.018Z,23.70
2018-08-09T20:07:58.045Z,23.70
2018-08-09T20:10:26.922Z,23.60
2018-08-09T20:12:55.753Z,23.70
2018-08-09T20:15:24.816Z,23.60
2018-08-09T20:17:53.573Z,23.60
2018-08-09T20:20:23.825Z,23.50
2018-08-09T20:22:52.742Z,23.50
2018-08-09T20:25:22.050Z,23.40
2018-08-09T20:27:51.313Z,23.40
2018-08-09T20:30:20.238Z,23.20
2018-08-09T20:32:49.497Z,23.10
2018-08-09T20:35:21.678Z,23.10
2018-08-09T20:37:50.922Z,23.00
2018-08-09T20:40:20.621Z,22.80
2018-08-09T20:42:52.057Z,22.80
2018-08-09T20:45:22.597Z,22.70
2018-08-09T20:47:51.680Z,22.70
2018-08-09T20:50:23.389Z,22.80
2018-08-09T20:53:25.589Z,22.90
2018-08-09T20:55:54.365Z,22.90
2018-08-09T20:58:23.349Z,22.80
2018-08-09T21:00:52.180Z,22.70
2018-08-09T21:03:20.957Z,22.80
2018-08-09T21:05:49.777Z,22.80
2018-08-09T21:08:18.831Z,22.70
2018-08-09T21:10:47.584Z,22.70
2018-08-09T21:13:16.445Z,22.60
2018-08-09T21:15:45.247Z,22.50
2018-08-09T21:18:14.001Z,22.60
2018-08-09T21:20:42.798Z,22.60
2018-08-09T21:23:11.555Z,22.70
2018-08-09T21:25:40.342Z,22.70
2018-08-09T21:28:09.329Z,22.70
2018-08-09T21:30:38.166Z,22.80
2018-08-09T21:33:07.134Z,22.70
2018-08-09T21:35:35.910Z,22.70
2018-08-09T21:38:04.717Z,22.70
2018-08-09T21:40:33.734Z,22.70
2018-08-09T21:43:02.939Z,22.70
2018-08-09T21:45:31.819Z,22.60
2018-08-09T21:48:00.899Z,22.60
2018-08-09T21:50:30.161Z,22.80
2018-08-09T21:52:59.092Z,22.80
2018-08-09T21:55:27.880Z,22.70
2018-08-09T21:57:56.721Z,22.70
2018-08-09T22:00:58.700Z,22.50
2018-08-09T22:03:30.943Z,22.40
2018-08-09T22:06:05.476Z,22.30
2018-08-09T22:08:39.752Z,22.30
2018-08-09T22:11:20.270Z,22.30
2018-08-09T22:13:59.872Z,22.20
2018-08-09T22:16:38.267Z,22.20
2018-08-09T22:19:35.195Z,22.30
2018-08-09T22:22:12.831Z,22.30
2018-08-09T22:24:41.697Z,22.20
2018-08-09T22:27:10.881Z,22.10
2018-08-09T22:29:39.967Z,22.10
2018-08-09T22:32:08.867Z,22.10
2018-08-09T22:34:37.629Z,22.10
2018-08-09T22:37:06.458Z,22.20
2018-08-09T22:39:35.353Z,22.20
2018-08-09T22:42:04.173Z,22.20
2018-08-09T22:44:33.022Z,22.20
2018-08-09T22:47:02.190Z,22.20
2018-08-09T22:49:31.010Z,22.20
2018-08-09T22:51:59.910Z,22.00
2018-08-09T22:54:28.697Z,22.00
2018-08-09T22:56:57.525Z,22.10
2018-08-09T22:59:26.395Z,22.10
2018-08-09T23:01:55.262Z,22.10
2018-08-09T23:04:24.101Z,22.00
2018-08-09T23:06:52.905Z,21.90
2018-08-09T23:09:21.709Z,21.90
2018-08-09T23:11:50.585Z,21.90
2018-08-09T23:14:19.447Z,22.00
2018-08-09T23:16:48.598Z,22.00
2018-08-09T23:19:17.601Z,22.00
2018-08-09T23:21:46.535Z,22.00
2018-08-09T23:24:15.354Z,21.90
2018-08-09T23:26:44.413Z,21.90
2018-08-09T23:29:13.295Z,21.90
2018-08-09T23:31:42.153Z,21.90
2018-08-09T23:34:11.181Z,21.90
2018-08-09T23:36:40.046Z,21.90
2018-08-09T23:39:11.141Z,21.90
2018-08-09T23:41:40.044Z,21.80
2018-08-09T23:44:08.833Z,21.80
2018-08-09T23:46:37.658Z,21.80
2018-08-09T23:49:06.446Z,21.80
2018-08-09T23:51:35.608Z,21.80
2018-08-09T23:54:04.625Z,21.70
2018-08-09T23:56:33.439Z,21.60
2018-08-09T23:59:02.276Z,21.50
